LPFR Airport Information

Runway Information
Runway 10 Length 8169 ft width 148 ft
Elevation 24 ft Threshold 148 ft Heading 100
Runway 28 Length 8169 ft Width 148 ft
Elevation 18 ft Threshold 148 ft Heading 280
Airport Frequencies
Type APP Name APP Frequency 119.4 MHZ
Type ATIS Name ATIS Frequency 124.2 MHZ
Type GND Name GND Frequency 118.575 MHZ
Type TWR Name TWR Frequency 118.2 MHZ
Airport Navaids
Type NDB Name Faro Frequency 332 KHZ
Type VOR-DME Name Faro Frequency 112800 KHZ
Airport Weather Information & NOTAM
ADDS - METARS form results

(1859 UTC 23 May 2019)
Data provider http://aviationweather.gov/metar/data/
 
METAR text: LPFR 231830Z 32016KT CAVOK 28/09 Q1015
Conditions at: LPFR (FARO , PT) observed 1830 UTC 23 May 2019
Temperature: 28.0°C (82°F)
Dewpoint: 9.0°C (48°F) [RH = 30%]
Pressure (altimeter): 29.97 inches Hg (1015.0 mb)
Winds: from the NW (320 degrees) at 18 MPH (16 knots; 8.2 m/s)
Visibility: 6 or more miles (10+ km)
Ceiling: ceiling and visibility are OK
Clouds: unknown
Weather: no significant weather observed at this time

METAR text: LPFR 231800Z 31017KT CAVOK 29/11 Q1014
Conditions at: LPFR (FARO , PT) observed 1800 UTC 23 May 2019
Temperature: 29.0°C (84°F)
Dewpoint: 11.0°C (52°F) [RH = 33%]
Pressure (altimeter): 29.94 inches Hg (1014.0 mb)
Winds: from the NW (310 degrees) at 20 MPH (17 knots; 8.7 m/s)
Visibility: 6 or more miles (10+ km)
Ceiling: ceiling and visibility are OK
Clouds: unknown
Weather: no significant weather observed at this time

Forecast for: LPFR (FARO , PT)
Text: TAF LPFR 231700Z 2318/2418 25013KT CAVOK
Forecast period: 1800 UTC 23 May 2019 to 1800 UTC 24 May 2019
Forecast type: FROM: standard forecast or significant change
Winds: from the WSW (250 degrees) at 15 MPH (13 knots; 6.7 m/s)
Visibility: 6 or more miles 10+ km)
Ceiling: unknown
Clouds: missing
Weather: NSW  (no significant weather)
Text: BECMG 2318/2320 31015KT
Forecast period: 1800 UTC 23 May 2019 to 0100 UTC 24 May 2019
Forecast type: BECOMING: Conditions expected to become as follows by 2000 UTC 23 May 2019
Winds: from the NW (310 degrees) at 17 MPH (15 knots; 7.7 m/s)
Visibility: 6 or more miles 10+ km)
Ceiling: unknown
Clouds: missing
Weather: NSW  (no significant weather)
Text: BECMG 2401/2403 34010KT
Forecast period: 0100 to 1200 UTC 24 May 2019
Forecast type: BECOMING: Conditions expected to become as follows by 0300 UTC 24 May 2019
Winds: from the NNW (340 degrees) at 12 MPH (10 knots; 5.1 m/s)
Visibility: 6 or more miles 10+ km)
Ceiling: unknown
Clouds: missing
Weather: NSW  (no significant weather)
Text: BECMG 2412/2414 34015KT
Forecast period: 1200 to 1800 UTC 24 May 2019
Forecast type: BECOMING: Conditions expected to become as follows by 1400 UTC 24 May 2019
Winds: from the NNW (340 degrees) at 17 MPH (15 knots; 7.7 m/s)
Visibility: 6 or more miles 10+ km)
Ceiling: unknown
Clouds: missing
Weather: NSW  (no significant weather)